Time,TemperatureF,DewpointF,PressureIn,WindDirection,WindDirectionDegrees,WindSpeedMPH,WindSpeedGustMPH,Humidity,HourlyPrecipIn,Conditions,Clouds,dailyrainin,SolarRadiationWatts/m^2,SoftwareType,DateUTC
2013-06-18 00:01:00,69.8,65.8,29.90,West,265,0.0,5.0,87,0.00,,,0.01,0.0,meteohub,2013-06-18 04:01:00,
2013-06-18 00:02:00,69.8,65.8,29.90,West,265,0.0,5.0,87,0.00,,,0.01,0.0,meteohub,2013-06-18 04:02:00,
2013-06-18 00:04:00,69.6,65.7,29.90,WNW,288,0.0,5.0,87,0.00,,,0.01,0.0,meteohub,2013-06-18 04:04:00,
2013-06-18 00:09:00,69.6,65.7,29.90,WSW,254,0.0,5.0,87,0.00,,,0.01,0.0,meteohub,2013-06-18 04:09:00,
2013-06-18 00:14:00,69.4,65.5,29.89,WSW,243,0.0,5.0,87,0.00,,,0.01,0.0,meteohub,2013-06-18 04:14:00,
2013-06-18 00:19:00,69.3,65.3,29.89,WNW,292,0.0,3.0,87,0.00,,,0.01,0.0,meteohub,2013-06-18 04:19:00,
2013-06-18 00:24:00,69.1,65.1,29.89,SW,234,0.0,5.0,87,0.00,,,0.01,0.0,meteohub,2013-06-18 04:24:00,
2013-06-18 00:29:00,69.1,65.1,29.89,West,279,0.0,6.0,87,0.00,,,0.01,0.0,meteohub,2013-06-18 04:29:00,
2013-06-18 00:34:00,69.1,65.1,29.89,NW,305,2.0,6.0,87,0.00,,,0.01,0.0,meteohub,2013-06-18 04:34:00,
2013-06-18 00:39:00,68.9,64.9,29.89,NW,305,3.0,6.0,87,0.00,,,0.01,0.0,meteohub,2013-06-18 04:39:00,
2013-06-18 00:44:00,68.7,64.8,29.89,NW,305,1.0,6.0,87,0.00,,,0.01,0.0,meteohub,2013-06-18 04:44:00,
2013-06-18 00:49:00,68.7,64.9,29.89,West,273,3.0,7.0,88,0.00,,,0.01,0.0,meteohub,2013-06-18 04:49:00,
2013-06-18 00:54:00,68.5,64.8,29.88,WNW,289,0.0,7.0,88,0.00,,,0.01,0.0,meteohub,2013-06-18 04:54:00,
2013-06-18 00:59:00,68.5,64.8,29.88,WNW,289,1.0,7.0,88,0.00,,,0.01,0.0,meteohub,2013-06-18 04:59:00,
2013-06-18 01:04:00,68.4,64.6,29.88,West,267,0.0,6.0,88,0.00,,,0.01,0.0,meteohub,2013-06-18 05:04:00,
2013-06-18 01:10:00,68.4,64.6,29.89,West,261,1.0,6.0,88,0.00,,,0.01,0.0,meteohub,2013-06-18 05:10:00,
2013-06-18 01:15:00,68.4,64.9,29.89,SW,234,0.0,5.0,89,0.00,,,0.01,0.0,meteohub,2013-06-18 05:15:00,
2013-06-18 01:20:00,68.2,64.8,29.88,WNW,291,0.0,5.0,89,0.00,,,0.01,0.0,meteohub,2013-06-18 05:20:00,
2013-06-18 01:25:00,68.2,64.8,29.89,West,261,1.0,5.0,89,0.00,,,0.01,0.0,meteohub,2013-06-18 05:25:00,
2013-06-18 01:30:00,68.2,64.8,29.89,WNW,290,2.0,5.0,89,0.00,,,0.01,0.0,meteohub,2013-06-18 05:30:00,
2013-06-18 01:35:00,68.2,64.8,29.88,WNW,292,0.0,6.0,89,0.00,,,0.01,0.0,meteohub,2013-06-18 05:35:00,
2013-06-18 01:40:00,68.4,64.9,29.88,WNW,303,1.0,6.0,89,0.00,,,0.01,0.0,meteohub,2013-06-18 05:40:00,
2013-06-18 01:45:00,68.4,64.9,29.88,SW,219,0.0,6.0,89,0.00,,,0.01,0.0,meteohub,2013-06-18 05:45:00,
2013-06-18 01:50:00,68.4,64.9,29.88,SW,234,0.0,4.0,89,0.00,,,0.01,0.0,meteohub,2013-06-18 05:50:00,
2013-06-18 01:55:00,68.4,64.9,29.88,WSW,253,4.0,4.0,89,0.00,,,0.01,0.0,meteohub,2013-06-18 05:55:00,
2013-06-18 02:00:00,68.5,64.8,29.88,WNW,283,0.0,5.0,88,0.00,,,0.01,0.0,meteohub,2013-06-18 06:00:00,
2013-06-18 02:06:00,68.5,64.8,29.88,SW,214,4.0,5.0,88,0.00,,,0.01,0.0,meteohub,2013-06-18 06:06:00,
2013-06-18 02:11:00,68.5,64.8,29.88,West,279,3.0,5.0,88,0.00,,,0.01,0.0,meteohub,2013-06-18 06:11:00,
2013-06-18 02:16:00,68.5,64.8,29.88,WSW,246,1.0,6.0,88,0.00,,,0.01,0.0,meteohub,2013-06-18 06:16:00,
2013-06-18 02:21:00,68.4,64.6,29.88,WNW,287,2.0,6.0,88,0.00,,,0.01,0.0,meteohub,2013-06-18 06:21:00,
2013-06-18 02:26:00,68.4,64.9,29.88,North,5,0.0,6.0,89,0.00,,,0.01,0.0,meteohub,2013-06-18 06:26:00,
2013-06-18 02:31:00,68.4,64.9,29.88,WNW,284,0.0,5.0,89,0.00,,,0.01,0.0,meteohub,2013-06-18 06:31:00,
2013-06-18 02:36:00,68.4,64.9,29.87,WNW,284,0.0,5.0,89,0.00,,,0.01,0.0,meteohub,2013-06-18 06:36:00,
2013-06-18 02:41:00,68.2,64.8,29.87,WNW,285,1.0,3.0,89,0.00,,,0.01,0.0,meteohub,2013-06-18 06:41:00,
2013-06-18 02:46:00,68.2,64.8,29.87,NNW,338,2.0,3.0,89,0.00,,,0.01,0.0,meteohub,2013-06-18 06:46:00,
2013-06-18 02:51:00,68.4,64.9,29.87,NNW,341,1.0,5.0,89,0.00,,,0.01,0.0,meteohub,2013-06-18 06:51:00,
2013-06-18 02:56:00,68.4,64.9,29.87,NW,317,0.0,7.0,89,0.00,,,0.01,0.0,meteohub,2013-06-18 06:56:00,
2013-06-18 03:01:00,68.4,64.9,29.87,NW,320,0.0,7.0,89,0.00,,,0.01,0.0,meteohub,2013-06-18 07:01:00,
2013-06-18 03:06:00,68.4,64.9,29.87,NW,304,1.0,7.0,89,0.00,,,0.01,0.0,meteohub,2013-06-18 07:06:00,
2013-06-18 03:12:00,68.5,65.1,29.87,NW,318,1.0,5.0,89,0.00,,,0.01,0.0,meteohub,2013-06-18 07:12:00,
2013-06-18 03:17:00,68.4,64.9,29.87,NW,325,1.0,4.0,89,0.00,,,0.01,0.0,meteohub,2013-06-18 07:17:00,
2013-06-18 03:22:00,68.4,64.9,29.86,NW,325,0.0,4.0,89,0.00,,,0.01,0.0,meteohub,2013-06-18 07:22:00,
2013-06-18 03:27:00,68.4,64.9,29.86,NW,325,1.0,4.0,89,0.00,,,0.01,0.0,meteohub,2013-06-18 07:27:00,
2013-06-18 03:32:00,68.4,64.9,29.86,NW,320,0.0,3.0,89,0.00,,,0.01,0.0,meteohub,2013-06-18 07:32:00,
2013-06-18 03:37:00,68.4,64.9,29.86,NW,320,1.0,3.0,89,0.00,,,0.01,0.0,meteohub,2013-06-18 07:37:00,
2013-06-18 03:42:00,68.4,64.9,29.87,NW,320,0.0,3.0,89,0.00,,,0.01,0.0,meteohub,2013-06-18 07:42:00,
2013-06-18 03:47:00,68.4,64.9,29.86,West,279,0.0,2.0,89,0.00,,,0.01,0.0,meteohub,2013-06-18 07:47:00,
2013-06-18 03:52:00,68.4,64.9,29.86,West,281,0.0,4.0,89,0.00,,,0.01,0.0,meteohub,2013-06-18 07:52:00,
2013-06-18 03:57:00,68.4,64.9,29.86,West,281,0.0,4.0,89,0.00,,,0.01,0.0,meteohub,2013-06-18 07:57:00,
2013-06-18 04:02:00,68.2,64.8,29.86,West,281,0.0,2.0,89,0.00,,,0.01,0.0,meteohub,2013-06-18 08:02:00,
2013-06-18 04:07:00,68.0,64.6,29.86,West,281,1.0,1.0,89,0.00,,,0.01,0.0,meteohub,2013-06-18 08:07:00,
2013-06-18 04:12:00,67.8,64.8,29.86,West,281,0.0,1.0,90,0.00,,,0.01,0.0,meteohub,2013-06-18 08:12:00,
2013-06-18 04:17:00,67.6,64.6,29.86,West,281,0.0,1.0,90,0.00,,,0.01,0.0,meteohub,2013-06-18 08:17:00,
2013-06-18 04:22:00,67.6,64.6,29.87,WNW,282,0.0,1.0,90,0.00,,,0.01,0.0,meteohub,2013-06-18 08:22:00,
2013-06-18 04:27:00,67.5,64.8,29.87,WNW,282,0.0,2.0,91,0.00,,,0.01,0.0,meteohub,2013-06-18 08:27:00,
2013-06-18 04:32:00,67.5,64.8,29.87,WNW,282,0.0,2.0,91,0.00,,,0.01,0.0,meteohub,2013-06-18 08:32:00,
2013-06-18 04:37:00,67.5,64.8,29.87,WNW,282,0.0,2.0,91,0.00,,,0.01,0.0,meteohub,2013-06-18 08:37:00,
2013-06-18 04:42:00,66.9,63.9,29.88,WNW,282,0.0,1.0,90,0.00,,,0.01,0.0,meteohub,2013-06-18 08:42:00,
2013-06-18 04:47:00,66.7,64.0,29.88,SSW,211,0.0,1.0,91,0.00,,,0.01,0.0,meteohub,2013-06-18 08:47:00,
2013-06-18 04:52:00,66.7,64.4,29.88,SSW,211,0.0,2.0,92,0.00,,,0.01,0.0,meteohub,2013-06-18 08:52:00,
2013-06-18 04:57:00,66.7,64.4,29.88,SSW,211,0.0,2.0,92,0.00,,,0.01,0.0,meteohub,2013-06-18 08:57:00,
2013-06-18 05:02:00,66.7,64.4,29.88,SSW,211,0.0,1.0,92,0.00,,,0.01,0.0,meteohub,2013-06-18 09:02:00,
2013-06-18 05:07:00,66.7,64.4,29.88,SSW,211,0.0,1.0,92,0.00,,,0.01,0.0,meteohub,2013-06-18 09:07:00,
2013-06-18 05:12:00,66.6,64.2,29.88,SSW,211,0.0,1.0,92,0.00,,,0.01,0.0,meteohub,2013-06-18 09:12:00,
2013-06-18 05:17:00,66.6,64.2,29.88,SSW,211,0.0,0.0,92,0.00,,,0.01,0.0,meteohub,2013-06-18 09:17:00,
2013-06-18 05:22:00,66.6,64.4,29.88,SSW,211,0.0,0.0,93,0.00,,,0.01,0.0,meteohub,2013-06-18 09:22:00,
2013-06-18 05:27:00,66.6,64.4,29.88,SSW,211,0.0,0.0,93,0.00,,,0.01,0.0,meteohub,2013-06-18 09:27:00,
2013-06-18 05:32:00,66.4,64.0,29.89,SSW,211,0.0,0.0,92,0.00,,,0.01,5.0,meteohub,2013-06-18 09:32:00,
2013-06-18 05:37:00,66.0,63.7,29.89,SSW,210,0.0,4.0,92,0.00,,,0.01,9.0,meteohub,2013-06-18 09:37:00,
2013-06-18 05:42:00,65.8,63.7,29.89,SSW,210,0.0,4.0,93,0.00,,,0.01,12.0,meteohub,2013-06-18 09:42:00,
2013-06-18 05:47:00,65.8,63.7,29.89,SSW,210,0.0,4.0,93,0.00,,,0.01,12.0,meteohub,2013-06-18 09:47:00,
2013-06-18 05:52:00,65.7,63.5,29.89,SSW,210,1.0,4.0,93,0.00,,,0.01,16.0,meteohub,2013-06-18 09:52:00,
2013-06-18 05:57:00,65.5,63.3,29.89,SSW,211,0.0,4.0,93,0.00,,,0.01,19.0,meteohub,2013-06-18 09:57:00,
2013-06-18 06:02:00,65.5,63.3,29.89,SSW,211,0.0,4.0,93,0.00,,,0.01,33.0,meteohub,2013-06-18 10:02:00,
2013-06-18 06:07:00,65.5,63.3,29.89,South,190,0.0,4.0,93,0.00,,,0.01,46.0,meteohub,2013-06-18 10:07:00,
2013-06-18 06:12:00,65.5,63.3,29.89,South,190,0.0,4.0,93,0.00,,,0.01,53.0,meteohub,2013-06-18 10:12:00,
2013-06-18 06:17:00,65.7,63.5,29.89,South,187,0.0,5.0,93,0.00,,,0.01,65.0,meteohub,2013-06-18 10:17:00,
2013-06-18 06:22:00,65.8,63.7,29.89,South,187,0.0,5.0,93,0.00,,,0.01,81.0,meteohub,2013-06-18 10:22:00,
2013-06-18 06:27:00,66.0,63.9,29.89,South,187,0.0,5.0,93,0.00,,,0.01,95.0,meteohub,2013-06-18 10:27:00,
2013-06-18 06:32:00,66.6,64.4,29.89,South,187,0.0,3.0,93,0.00,,,0.01,109.0,meteohub,2013-06-18 10:32:00,
2013-06-18 06:37:00,66.9,64.6,29.89,West,266,0.0,2.0,92,0.00,,,0.01,127.0,meteohub,2013-06-18 10:37:00,
2013-06-18 06:42:00,67.5,64.8,29.89,West,266,0.0,1.0,91,0.00,,,0.01,130.0,meteohub,2013-06-18 10:42:00,
2013-06-18 06:47:00,67.6,64.6,29.89,West,266,0.0,1.0,90,0.00,,,0.01,167.0,meteohub,2013-06-18 10:47:00,
2013-06-18 06:52:00,68.2,65.1,29.89,West,266,0.0,1.0,90,0.00,,,0.01,202.0,meteohub,2013-06-18 10:52:00,
2013-06-18 06:57:00,68.9,65.5,29.89,West,266,0.0,1.0,89,0.00,,,0.01,227.0,meteohub,2013-06-18 10:57:00,
2013-06-18 07:02:00,69.6,65.8,29.89,West,266,0.0,1.0,88,0.00,,,0.01,183.0,meteohub,2013-06-18 11:02:00,
2013-06-18 07:07:00,70.0,66.0,29.89,SW,234,0.0,1.0,87,0.00,,,0.01,204.0,meteohub,2013-06-18 11:07:00,
2013-06-18 07:12:00,70.2,65.8,29.89,SW,233,0.0,1.0,86,0.00,,,0.01,234.0,meteohub,2013-06-18 11:12:00,
2013-06-18 07:17:00,70.3,66.0,29.89,WNW,286,0.0,3.0,86,0.00,,,0.01,330.0,meteohub,2013-06-18 11:17:00,
2013-06-18 07:22:00,70.5,66.2,29.89,WNW,286,0.0,3.0,86,0.00,,,0.01,188.0,meteohub,2013-06-18 11:22:00,
2013-06-18 07:27:00,70.9,66.6,29.89,WNW,286,0.0,1.0,86,0.00,,,0.01,171.0,meteohub,2013-06-18 11:27:00,
2013-06-18 07:32:00,71.1,66.7,29.89,WNW,286,0.0,1.0,86,0.00,,,0.01,171.0,meteohub,2013-06-18 11:32:00,
2013-06-18 07:37:00,71.2,66.9,29.89,WNW,296,0.0,1.0,86,0.00,,,0.01,174.0,meteohub,2013-06-18 11:37:00,
2013-06-18 07:42:00,71.4,67.1,29.89,WNW,296,0.0,1.0,86,0.00,,,0.01,183.0,meteohub,2013-06-18 11:42:00,
2013-06-18 07:47:00,71.8,67.1,29.89,WNW,296,0.0,1.0,85,0.00,,,0.01,190.0,meteohub,2013-06-18 11:47:00,
2013-06-18 07:52:00,72.0,67.3,29.89,WNW,296,0.0,1.0,85,0.00,,,0.01,218.0,meteohub,2013-06-18 11:52:00,
2013-06-18 07:57:00,72.1,67.6,29.89,West,271,0.0,1.0,86,0.00,,,0.01,250.0,meteohub,2013-06-18 11:57:00,
2013-06-18 08:02:00,72.7,67.8,29.89,West,263,0.0,1.0,85,0.00,,,0.01,269.0,meteohub,2013-06-18 12:02:00,
2013-06-18 08:07:00,73.0,68.0,29.89,West,263,0.0,1.0,84,0.00,,,0.01,269.0,meteohub,2013-06-18 12:07:00,
2013-06-18 08:12:00,73.6,68.4,29.90,West,263,0.0,1.0,84,0.00,,,0.01,265.0,meteohub,2013-06-18 12:12:00,
2013-06-18 08:17:00,74.1,68.5,29.90,West,263,0.0,1.0,83,0.00,,,0.01,262.0,meteohub,2013-06-18 12:17:00,
2013-06-18 08:22:00,74.7,68.7,29.90,SSW,196,2.0,2.0,82,0.00,,,0.01,236.0,meteohub,2013-06-18 12:22:00,
2013-06-18 08:27:00,74.8,68.9,29.90,South,186,0.0,3.0,82,0.00,,,0.01,283.0,meteohub,2013-06-18 12:27:00,
2013-06-18 08:32:00,75.0,68.7,29.90,SSW,193,0.0,4.0,81,0.00,,,0.01,318.0,meteohub,2013-06-18 12:32:00,
2013-06-18 08:37:00,75.2,68.5,29.90,SSW,193,0.0,5.0,80,0.00,,,0.01,279.0,meteohub,2013-06-18 12:37:00,
2013-06-18 08:42:00,75.6,68.9,29.90,SSW,193,0.0,5.0,80,0.00,,,0.01,339.0,meteohub,2013-06-18 12:42:00,
2013-06-18 08:47:00,75.6,68.5,29.90,SSW,193,0.0,3.0,79,0.00,,,0.01,320.0,meteohub,2013-06-18 12:47:00,
2013-06-18 08:52:00,75.7,68.7,29.90,SSW,193,0.0,2.0,79,0.00,,,0.01,288.0,meteohub,2013-06-18 12:52:00,
2013-06-18 08:57:00,75.9,68.9,29.90,SSW,193,0.0,1.0,79,0.00,,,0.01,309.0,meteohub,2013-06-18 12:57:00,
2013-06-18 09:02:00,76.5,69.4,29.90,SSW,193,0.0,1.0,79,0.00,,,0.01,315.0,meteohub,2013-06-18 13:02:00,
2013-06-18 09:07:00,76.5,69.1,29.90,SSW,193,0.0,1.0,78,0.00,,,0.01,311.0,meteohub,2013-06-18 13:07:00,
2013-06-18 09:12:00,76.6,68.5,29.90,SSW,193,0.0,1.0,76,0.00,,,0.01,338.0,meteohub,2013-06-18 13:12:00,
2013-06-18 09:17:00,77.2,69.4,29.90,SSW,193,0.0,1.0,77,0.00,,,0.01,360.0,meteohub,2013-06-18 13:17:00,
2013-06-18 09:22:00,77.5,68.5,29.90,SSW,193,0.0,1.0,74,0.00,,,0.01,345.0,meteohub,2013-06-18 13:22:00,
2013-06-18 09:27:00,78.3,68.9,29.90,SSW,193,0.0,1.0,73,0.00,,,0.01,345.0,meteohub,2013-06-18 13:27:00,
2013-06-18 09:32:00,78.4,68.2,29.90,SSW,196,4.0,4.0,71,0.00,,,0.01,352.0,meteohub,2013-06-18 13:32:00,
2013-06-18 09:37:00,78.6,68.0,29.90,SSW,194,0.0,5.0,70,0.00,,,0.01,425.0,meteohub,2013-06-18 13:37:00,
2013-06-18 09:42:00,79.0,68.7,29.89,SE,140,0.0,5.0,71,0.00,,,0.01,383.0,meteohub,2013-06-18 13:42:00,
2013-06-18 09:47:00,79.3,69.1,29.89,South,191,0.0,5.0,71,0.00,,,0.01,408.0,meteohub,2013-06-18 13:47:00,
2013-06-18 09:52:00,79.2,68.9,29.89,South,191,4.0,6.0,71,0.00,,,0.01,446.0,meteohub,2013-06-18 13:52:00,
2013-06-18 09:57:00,79.2,69.3,29.89,SSW,199,0.0,6.0,72,0.00,,,0.01,519.0,meteohub,2013-06-18 13:57:00,
2013-06-18 10:02:00,79.3,70.0,29.89,South,189,4.0,6.0,73,0.00,,,0.01,499.0,meteohub,2013-06-18 14:02:00,
2013-06-18 10:07:00,79.5,69.3,29.89,South,188,0.0,6.0,71,0.00,,,0.01,397.0,meteohub,2013-06-18 14:07:00,
2013-06-18 10:12:00,80.1,69.8,29.89,ESE,113,0.0,6.0,71,0.00,,,0.01,450.0,meteohub,2013-06-18 14:12:00,
2013-06-18 10:17:00,80.1,69.4,29.89,SE,142,0.0,6.0,70,0.00,,,0.01,385.0,meteohub,2013-06-18 14:17:00,
2013-06-18 10:22:00,80.1,69.4,29.88,SSW,200,0.0,5.0,70,0.00,,,0.01,513.0,meteohub,2013-06-18 14:22:00,
2013-06-18 10:27:00,79.7,69.4,29.88,SSE,150,0.0,5.0,71,0.00,,,0.01,406.0,meteohub,2013-06-18 14:27:00,
2013-06-18 10:32:00,79.5,69.6,29.88,SE,128,0.0,7.0,72,0.00,,,0.01,353.0,meteohub,2013-06-18 14:32:00,
2013-06-18 10:37:00,79.7,69.4,29.88,SE,130,0.0,7.0,71,0.00,,,0.01,388.0,meteohub,2013-06-18 14:37:00,
2013-06-18 10:42:00,79.7,69.4,29.88,SSW,192,4.0,4.0,71,0.00,,,0.01,431.0,meteohub,2013-06-18 14:42:00,
2013-06-18 10:47:00,79.5,69.3,29.88,South,186,0.0,6.0,71,0.00,,,0.01,371.0,meteohub,2013-06-18 14:47:00,
2013-06-18 10:52:00,79.7,69.1,29.88,South,176,1.0,6.0,70,0.00,,,0.01,378.0,meteohub,2013-06-18 14:52:00,
2013-06-18 10:57:00,79.7,69.1,29.88,SSW,194,0.0,7.0,70,0.00,,,0.01,408.0,meteohub,2013-06-18 14:57:00,
2013-06-18 11:02:00,79.9,69.3,29.88,SE,138,0.0,7.0,70,0.00,,,0.01,420.0,meteohub,2013-06-18 15:02:00,
2013-06-18 11:07:00,80.2,69.1,29.88,SE,134,0.0,7.0,69,0.00,,,0.01,466.0,meteohub,2013-06-18 15:07:00,
2013-06-18 11:12:00,80.6,69.1,29.87,SSW,194,0.0,6.0,68,0.00,,,0.01,570.0,meteohub,2013-06-18 15:12:00,
2013-06-18 11:17:00,81.0,68.9,29.87,SE,136,1.0,6.0,67,0.00,,,0.01,522.0,meteohub,2013-06-18 15:17:00,
2013-06-18 11:22:00,81.1,68.7,29.87,ESE,117,5.0,6.0,66,0.00,,,0.01,647.0,meteohub,2013-06-18 15:22:00,
2013-06-18 11:27:00,81.9,69.4,29.87,SE,142,0.0,7.0,66,0.00,,,0.01,914.0,meteohub,2013-06-18 15:27:00,
2013-06-18 11:32:00,82.8,69.8,29.87,SE,126,1.0,7.0,65,0.00,,,0.01,826.0,meteohub,2013-06-18 15:32:00,
2013-06-18 11:37:00,83.1,68.7,29.87,South,184,2.0,6.0,62,0.00,,,0.01,1005.0,meteohub,2013-06-18 15:37:00,
2013-06-18 11:42:00,83.3,68.9,29.87,SE,136,4.0,7.0,62,0.00,,,0.01,529.0,meteohub,2013-06-18 15:42:00,
2013-06-18 11:47:00,83.3,68.4,29.88,South,189,1.0,7.0,61,0.00,,,0.01,492.0,meteohub,2013-06-18 15:47:00,
2013-06-18 11:52:00,82.8,68.4,29.88,SE,126,0.0,8.0,62,0.00,,,0.01,547.0,meteohub,2013-06-18 15:52:00,
2013-06-18 11:57:00,82.9,69.1,29.87,SE,144,4.0,8.0,63,0.00,,,0.01,696.0,meteohub,2013-06-18 15:57:00,
2013-06-18 12:02:00,83.1,68.7,29.87,SSE,160,0.0,8.0,62,0.00,,,0.01,707.0,meteohub,2013-06-18 16:02:00,
2013-06-18 12:07:00,83.1,68.4,29.87,ESE,113,4.0,7.0,61,0.00,,,0.01,577.0,meteohub,2013-06-18 16:07:00,
2013-06-18 12:12:00,82.9,68.5,29.87,SE,142,0.0,7.0,62,0.00,,,0.01,582.0,meteohub,2013-06-18 16:12:00,
2013-06-18 12:17:00,82.9,68.2,29.87,SSE,148,0.0,6.0,61,0.00,,,0.01,512.0,meteohub,2013-06-18 16:17:00,
2013-06-18 12:22:00,82.9,68.5,29.86,ESE,120,0.0,7.0,62,0.00,,,0.01,635.0,meteohub,2013-06-18 16:22:00,
2013-06-18 12:27:00,83.5,68.5,29.86,ESE,114,4.0,7.0,61,0.00,,,0.01,1153.0,meteohub,2013-06-18 16:27:00,
2013-06-18 12:32:00,84.4,68.9,29.86,SE,142,0.0,8.0,60,0.00,,,0.01,1160.0,meteohub,2013-06-18 16:32:00,
2013-06-18 12:37:00,84.9,68.5,29.86,SE,125,4.0,8.0,58,0.00,,,0.01,664.0,meteohub,2013-06-18 16:37:00,
2013-06-18 12:42:00,84.7,68.4,29.86,ESE,121,4.0,8.0,58,0.00,,,0.01,492.0,meteohub,2013-06-18 16:42:00,
2013-06-18 12:47:00,83.8,68.0,29.85,ESE,121,0.0,7.0,59,0.00,,,0.01,413.0,meteohub,2013-06-18 16:47:00,
2013-06-18 12:52:00,83.1,68.4,29.85,SSE,159,0.0,7.0,61,0.00,,,0.01,309.0,meteohub,2013-06-18 16:52:00,
2013-06-18 12:57:00,82.9,68.5,29.85,SE,135,0.0,7.0,62,0.00,,,0.01,181.0,meteohub,2013-06-18 16:57:00,
2013-06-18 13:02:00,82.0,68.7,29.85,ESE,113,0.0,5.0,64,0.00,,,0.01,128.0,meteohub,2013-06-18 17:02:00,
2013-06-18 13:07:00,81.0,68.5,29.85,ESE,104,0.0,5.0,66,0.00,,,0.01,98.0,meteohub,2013-06-18 17:07:00,
2013-06-18 13:12:00,80.2,68.7,29.85,ESE,119,0.0,5.0,68,0.00,,,0.01,76.0,meteohub,2013-06-18 17:12:00,
2013-06-18 13:17:00,79.5,68.5,29.85,ESE,119,0.0,5.0,69,0.00,,,0.01,53.0,meteohub,2013-06-18 17:17:00,
2013-06-18 13:22:00,79.0,68.7,29.85,SE,142,5.0,5.0,71,0.00,,,0.01,40.0,meteohub,2013-06-18 17:22:00,
2013-06-18 13:27:00,78.3,68.9,29.85,SE,134,3.0,5.0,73,0.00,,,0.01,26.0,meteohub,2013-06-18 17:27:00,
2013-06-18 13:32:00,77.9,68.9,29.85,SE,136,1.0,6.0,74,0.00,,,0.01,26.0,meteohub,2013-06-18 17:32:00,
2013-06-18 13:37:00,77.4,69.6,29.84,SSE,163,0.0,6.0,77,0.00,,,0.01,30.0,meteohub,2013-06-18 17:37:00,
2013-06-18 13:42:00,76.8,70.2,29.84,SSE,159,0.0,7.0,80,0.00,,,0.01,32.0,meteohub,2013-06-18 17:42:00,
2013-06-18 13:47:00,75.9,70.7,29.84,SSE,151,2.0,8.0,84,0.01,,,0.02,33.0,meteohub,2013-06-18 17:47:00,
2013-06-18 13:52:00,74.5,69.3,29.84,SSW,193,7.0,8.0,84,0.02,,,0.03,32.0,meteohub,2013-06-18 17:52:00,
2013-06-18 13:57:00,73.0,68.5,29.83,SSE,168,4.0,10.0,86,0.04,,,0.05,32.0,meteohub,2013-06-18 17:57:00,
2013-06-18 14:02:00,72.1,68.0,29.81,South,187,0.0,10.0,87,0.05,,,0.06,28.0,meteohub,2013-06-18 18:02:00,
2013-06-18 14:08:00,72.0,68.9,29.81,East,98,2.0,10.0,90,0.05,,,0.06,30.0,meteohub,2013-06-18 18:08:00,
2013-06-18 14:13:00,71.4,68.4,29.81,ESE,110,2.0,7.0,90,0.06,,,0.07,35.0,meteohub,2013-06-18 18:13:00,
2013-06-18 14:18:00,71.1,67.6,29.82,SE,138,0.0,7.0,89,0.06,,,0.07,40.0,meteohub,2013-06-18 18:18:00,
2013-06-18 14:23:00,70.7,67.3,29.82,SSE,159,2.0,7.0,89,0.06,,,0.07,40.0,meteohub,2013-06-18 18:23:00,
2013-06-18 14:28:00,70.2,66.4,29.82,SE,142,6.0,7.0,88,0.06,,,0.07,37.0,meteohub,2013-06-18 18:28:00,
2013-06-18 14:33:00,69.4,65.5,29.82,ESE,119,1.0,9.0,87,0.07,,,0.08,35.0,meteohub,2013-06-18 18:33:00,
2013-06-18 14:38:00,68.7,64.8,29.81,SE,124,2.0,9.0,87,0.07,,,0.08,33.0,meteohub,2013-06-18 18:38:00,
2013-06-18 14:43:00,68.2,63.9,29.81,ESE,109,4.0,9.0,86,0.07,,,0.08,30.0,meteohub,2013-06-18 18:43:00,
2013-06-18 14:48:00,67.6,63.7,29.82,ESE,114,4.0,9.0,87,0.06,,,0.08,23.0,meteohub,2013-06-18 18:48:00,
2013-06-18 14:53:00,67.5,63.9,29.83,SSE,159,1.0,9.0,88,0.05,,,0.08,19.0,meteohub,2013-06-18 18:53:00,
2013-06-18 14:58:00,67.1,63.5,29.83,South,169,1.0,9.0,88,0.03,,,0.08,16.0,meteohub,2013-06-18 18:58:00,
2013-06-18 15:03:00,66.9,63.5,29.84,WNW,283,0.0,7.0,89,0.03,,,0.09,14.0,meteohub,2013-06-18 19:03:00,
2013-06-18 15:09:00,66.7,63.7,29.86,NW,315,4.0,8.0,90,0.02,,,0.09,14.0,meteohub,2013-06-18 19:09:00,
2013-06-18 15:14:00,66.6,63.9,29.86,NNW,343,0.0,8.0,91,0.03,,,0.10,14.0,meteohub,2013-06-18 19:14:00,
2013-06-18 15:19:00,66.7,64.4,29.86,West,266,0.0,7.0,92,0.03,,,0.10,14.0,meteohub,2013-06-18 19:19:00,
2013-06-18 15:24:00,66.6,64.2,29.86,WSW,239,1.0,7.0,92,0.05,,,0.12,16.0,meteohub,2013-06-18 19:24:00,
2013-06-18 15:29:00,66.6,64.2,29.87,South,184,4.0,8.0,92,0.05,,,0.13,18.0,meteohub,2013-06-18 19:29:00,
2013-06-18 15:34:00,66.4,64.0,29.88,SW,226,6.0,8.0,92,0.05,,,0.13,18.0,meteohub,2013-06-18 19:34:00,
2013-06-18 15:39:00,66.2,64.0,29.88,SW,217,2.0,8.0,93,0.06,,,0.14,21.0,meteohub,2013-06-18 19:39:00,
2013-06-18 15:44:00,65.8,63.7,29.87,South,181,4.0,8.0,93,0.08,,,0.16,30.0,meteohub,2013-06-18 19:44:00,
2013-06-18 15:49:00,65.7,63.5,29.87,SSW,192,1.0,8.0,93,0.09,,,0.17,46.0,meteohub,2013-06-18 19:49:00,
2013-06-18 15:55:00,65.5,63.3,29.87,SSW,192,0.0,7.0,93,0.12,,,0.20,62.0,meteohub,2013-06-18 19:55:00,
2013-06-18 16:00:00,65.5,63.7,29.86,South,178,0.0,7.0,94,0.13,,,0.22,72.0,meteohub,2013-06-18 20:00:00,
2013-06-18 16:05:00,65.5,64.0,29.85,South,178,0.0,5.0,95,0.15,,,0.26,72.0,meteohub,2013-06-18 20:05:00,
2013-06-18 16:10:00,65.5,64.0,29.84,South,178,0.0,5.0,95,0.17,,,0.27,67.0,meteohub,2013-06-18 20:10:00,
2013-06-18 16:15:00,65.7,64.2,29.84,SW,232,3.0,3.0,95,0.17,,,0.28,56.0,meteohub,2013-06-18 20:15:00,
2013-06-18 16:20:00,65.5,64.0,29.84,SSW,198,0.0,4.0,95,0.16,,,0.28,47.0,meteohub,2013-06-18 20:20:00,
2013-06-18 16:25:00,65.5,64.0,29.84,SSW,197,1.0,4.0,95,0.15,,,0.28,46.0,meteohub,2013-06-18 20:25:00,
2013-06-18 16:30:00,65.5,64.0,29.84,South,191,0.0,4.0,95,0.14,,,0.28,42.0,meteohub,2013-06-18 20:30:00,
2013-06-18 16:35:00,65.7,64.4,29.84,South,188,0.0,4.0,96,0.13,,,0.28,35.0,meteohub,2013-06-18 20:35:00,
2013-06-18 16:40:00,65.7,64.4,29.84,South,188,0.0,6.0,96,0.13,,,0.29,33.0,meteohub,2013-06-18 20:40:00,
2013-06-18 16:45:00,65.8,64.6,29.84,South,188,0.0,6.0,96,0.11,,,0.29,32.0,meteohub,2013-06-18 20:45:00,
2013-06-18 16:50:00,65.7,64.4,29.85,SW,223,0.0,5.0,96,0.09,,,0.30,32.0,meteohub,2013-06-18 20:50:00,
2013-06-18 16:56:00,65.7,64.4,29.85,SW,223,0.0,4.0,96,0.07,,,0.30,35.0,meteohub,2013-06-18 20:56:00,
2013-06-18 17:01:00,65.7,64.4,29.84,SW,223,0.0,4.0,96,0.06,,,0.30,40.0,meteohub,2013-06-18 21:01:00,
2013-06-18 17:06:00,65.7,64.4,29.84,SW,223,0.0,3.0,96,0.04,,,0.31,42.0,meteohub,2013-06-18 21:06:00,
2013-06-18 17:11:00,65.7,64.4,29.84,SW,223,0.0,1.0,96,0.04,,,0.32,40.0,meteohub,2013-06-18 21:11:00,
2013-06-18 17:16:00,65.8,64.6,29.83,SW,223,0.0,1.0,96,0.04,,,0.32,39.0,meteohub,2013-06-18 21:16:00,
2013-06-18 17:21:00,65.8,64.6,29.83,SSW,202,1.0,3.0,96,0.04,,,0.32,39.0,meteohub,2013-06-18 21:21:00,
2013-06-18 17:26:00,66.0,64.8,29.83,South,184,1.0,8.0,96,0.05,,,0.33,39.0,meteohub,2013-06-18 21:26:00,
2013-06-18 17:31:00,66.0,64.8,29.84,SSW,197,2.0,8.0,96,0.05,,,0.33,40.0,meteohub,2013-06-18 21:31:00,
2013-06-18 17:36:00,65.8,64.6,29.83,South,181,4.0,8.0,96,0.05,,,0.33,35.0,meteohub,2013-06-18 21:36:00,
2013-06-18 17:41:00,65.8,64.6,29.83,SSW,212,0.0,7.0,96,0.04,,,0.33,33.0,meteohub,2013-06-18 21:41:00,
2013-06-18 17:46:00,65.8,64.6,29.83,SSW,193,0.0,7.0,96,0.04,,,0.33,30.0,meteohub,2013-06-18 21:46:00,
2013-06-18 17:52:00,65.8,64.6,29.83,SW,224,0.0,8.0,96,0.04,,,0.34,30.0,meteohub,2013-06-18 21:52:00,
2013-06-18 17:57:00,65.8,64.6,29.83,SW,223,0.0,8.0,96,0.04,,,0.34,28.0,meteohub,2013-06-18 21:57:00,
2013-06-18 18:02:00,65.8,64.9,29.84,WSW,244,0.0,8.0,97,0.03,,,0.34,30.0,meteohub,2013-06-18 22:02:00,
2013-06-18 18:07:00,65.8,64.6,29.84,WNW,302,0.0,4.0,96,0.02,,,0.00,33.0,meteohub,2013-06-18 22:07:00,
2013-06-18 18:12:00,66.0,64.8,29.83,WNW,302,0.0,4.0,96,0.02,,,0.00,32.0,meteohub,2013-06-18 22:12:00,
2013-06-18 18:17:00,66.2,65.3,29.83,WNW,302,0.0,4.0,97,0.02,,,0.00,28.0,meteohub,2013-06-18 22:17:00,
2013-06-18 18:22:00,66.4,65.5,29.83,WNW,302,0.0,3.0,97,0.03,,,0.00,25.0,meteohub,2013-06-18 22:22:00,
2013-06-18 18:27:00,66.6,65.7,29.84,North,355,0.0,3.0,97,0.02,,,0.01,25.0,meteohub,2013-06-18 22:27:00,
2013-06-18 18:32:00,66.6,65.7,29.84,North,351,1.0,3.0,97,0.02,,,0.01,23.0,meteohub,2013-06-18 22:32:00,
2013-06-18 18:37:00,66.4,65.5,29.84,North,351,0.0,3.0,97,0.02,,,0.01,21.0,meteohub,2013-06-18 22:37:00,
2013-06-18 18:42:00,66.4,65.5,29.85,North,351,0.0,3.0,97,0.02,,,0.01,21.0,meteohub,2013-06-18 22:42:00,
2013-06-18 18:47:00,66.4,65.5,29.85,North,351,0.0,4.0,97,0.01,,,0.01,19.0,meteohub,2013-06-18 22:47:00,
2013-06-18 18:52:00,66.4,65.5,29.86,NW,326,0.0,4.0,97,0.01,,,0.01,18.0,meteohub,2013-06-18 22:52:00,
2013-06-18 18:57:00,66.4,65.5,29.86,NNW,338,1.0,5.0,97,0.01,,,0.01,16.0,meteohub,2013-06-18 22:57:00,
2013-06-18 19:02:00,66.4,65.5,29.86,North,5,0.0,5.0,97,0.02,,,0.02,16.0,meteohub,2013-06-18 23:02:00,
2013-06-18 19:07:00,66.4,65.5,29.86,NNW,339,0.0,5.0,97,0.02,,,0.02,14.0,meteohub,2013-06-18 23:07:00,
2013-06-18 19:12:00,66.4,65.5,29.86,North,355,0.0,6.0,97,0.02,,,0.02,12.0,meteohub,2013-06-18 23:12:00,
2013-06-18 19:17:00,66.4,65.1,29.86,NNE,33,0.0,6.0,96,0.02,,,0.02,14.0,meteohub,2013-06-18 23:17:00,
2013-06-18 19:22:00,66.4,65.1,29.86,North,5,0.0,5.0,96,0.02,,,0.03,14.0,meteohub,2013-06-18 23:22:00,
2013-06-18 19:27:00,66.4,65.1,29.86,North,5,1.0,5.0,96,0.03,,,0.04,14.0,meteohub,2013-06-18 23:27:00,
2013-06-18 19:32:00,66.4,65.1,29.86,North,5,0.0,5.0,96,0.03,,,0.04,12.0,meteohub,2013-06-18 23:32:00,
2013-06-18 19:37:00,66.4,65.5,29.86,North,5,0.0,2.0,97,0.04,,,0.05,12.0,meteohub,2013-06-18 23:37:00,
2013-06-18 19:42:00,66.4,65.5,29.86,North,5,0.0,2.0,97,0.04,,,0.05,11.0,meteohub,2013-06-18 23:42:00,
2013-06-18 19:47:00,66.4,65.1,29.86,North,5,0.0,2.0,96,0.05,,,0.06,11.0,meteohub,2013-06-18 23:47:00,
2013-06-18 19:52:00,66.4,65.1,29.86,North,5,0.0,2.0,96,0.05,,,0.06,12.0,meteohub,2013-06-18 23:52:00,
2013-06-18 19:57:00,66.4,65.1,29.85,North,5,0.0,2.0,96,0.05,,,0.06,19.0,meteohub,2013-06-18 23:57:00,
2013-06-18 20:02:00,66.4,65.1,29.86,North,5,0.0,2.0,96,0.04,,,0.06,26.0,meteohub,2013-06-19 00:02:00,
2013-06-18 20:07:00,66.4,65.1,29.85,North,5,0.0,1.0,96,0.04,,,0.06,23.0,meteohub,2013-06-19 00:07:00,
2013-06-18 20:12:00,66.0,64.8,29.85,North,5,0.0,1.0,96,0.04,,,0.06,14.0,meteohub,2013-06-19 00:12:00,
2013-06-18 20:17:00,66.0,64.8,29.85,North,5,0.0,1.0,96,0.03,,,0.06,7.0,meteohub,2013-06-19 00:17:00,
2013-06-18 20:22:00,65.8,64.6,29.84,North,5,0.0,1.0,96,0.03,,,0.06,0.0,meteohub,2013-06-19 00:22:00,
2013-06-18 20:27:00,65.8,64.6,29.84,North,5,0.0,1.0,96,0.02,,,0.06,0.0,meteohub,2013-06-19 00:27:00,
2013-06-18 20:32:00,66.0,64.8,29.83,North,5,0.0,1.0,96,0.02,,,0.06,0.0,meteohub,2013-06-19 00:32:00,
2013-06-18 20:37:00,66.0,64.8,29.83,NNE,26,4.0,4.0,96,0.02,,,0.07,0.0,meteohub,2013-06-19 00:37:00,
2013-06-18 20:42:00,65.8,64.6,29.81,ESE,105,3.0,5.0,96,0.02,,,0.07,0.0,meteohub,2013-06-19 00:42:00,
2013-06-18 20:47:00,65.5,64.2,29.81,ESE,121,7.0,7.0,96,0.01,,,0.07,0.0,meteohub,2013-06-19 00:47:00,
2013-06-18 20:52:00,65.3,64.0,29.81,ESE,120,1.0,7.0,96,0.01,,,0.07,0.0,meteohub,2013-06-19 00:52:00,
2013-06-18 20:57:00,64.9,63.5,29.81,ESE,108,2.0,10.0,95,0.01,,,0.07,0.0,meteohub,2013-06-19 00:57:00,
2013-06-18 21:02:00,65.1,63.7,29.80,SE,130,3.0,10.0,95,0.01,,,0.07,0.0,meteohub,2013-06-19 01:02:00,
2013-06-18 21:07:00,65.1,63.7,29.80,ESE,107,4.0,10.0,95,0.01,,,0.07,0.0,meteohub,2013-06-19 01:07:00,
2013-06-18 21:12:00,65.1,63.7,29.79,SE,140,2.0,9.0,95,0.01,,,0.07,0.0,meteohub,2013-06-19 01:12:00,
2013-06-18 21:17:00,65.3,63.9,29.80,East,98,1.0,9.0,95,0.01,,,0.07,0.0,meteohub,2013-06-19 01:17:00,
2013-06-18 21:22:00,65.1,63.7,29.81,East,92,5.0,9.0,95,0.01,,,0.07,0.0,meteohub,2013-06-19 01:22:00,
2013-06-18 21:27:00,65.1,63.7,29.81,ESE,102,3.0,10.0,95,0.01,,,0.07,0.0,meteohub,2013-06-19 01:27:00,
2013-06-18 21:32:00,65.1,63.3,29.82,East,90,0.0,10.0,94,0.00,,,0.07,0.0,meteohub,2013-06-19 01:32:00,
2013-06-18 21:37:00,65.1,63.3,29.82,East,95,0.0,10.0,94,0.00,,,0.07,0.0,meteohub,2013-06-19 01:37:00,
2013-06-18 21:42:00,65.5,63.7,29.83,NNW,337,1.0,6.0,94,0.00,,,0.07,0.0,meteohub,2013-06-19 01:42:00,
2013-06-18 21:47:00,65.5,63.7,29.84,NW,315,3.0,6.0,94,0.00,,,0.07,0.0,meteohub,2013-06-19 01:47:00,
2013-06-18 21:52:00,65.5,63.7,29.84,NNW,329,1.0,8.0,94,0.00,,,0.07,0.0,meteohub,2013-06-19 01:52:00,
2013-06-18 21:57:00,65.5,63.7,29.84,NW,315,2.0,8.0,94,0.00,,,0.07,0.0,meteohub,2013-06-19 01:57:00,
2013-06-18 22:02:00,65.5,63.3,29.84,North,9,0.0,10.0,93,0.00,,,0.07,0.0,meteohub,2013-06-19 02:02:00,
2013-06-18 22:07:00,65.5,63.3,29.85,NNW,340,1.0,10.0,93,0.00,,,0.07,0.0,meteohub,2013-06-19 02:07:00,
2013-06-18 22:12:00,65.5,63.3,29.85,NNW,330,0.0,7.0,93,0.00,,,0.07,0.0,meteohub,2013-06-19 02:12:00,
2013-06-18 22:17:00,65.5,63.3,29.86,North,5,0.0,7.0,93,0.00,,,0.07,0.0,meteohub,2013-06-19 02:17:00,
2013-06-18 22:22:00,65.5,63.3,29.86,NW,325,3.0,7.0,93,0.00,,,0.07,0.0,meteohub,2013-06-19 02:22:00,
2013-06-18 22:27:00,65.3,63.1,29.86,NNW,336,1.0,6.0,93,0.00,,,0.07,0.0,meteohub,2013-06-19 02:27:00,
2013-06-18 22:32:00,65.1,63.0,29.86,North,11,0.0,6.0,93,0.00,,,0.07,0.0,meteohub,2013-06-19 02:32:00,
2013-06-18 22:37:00,64.9,63.1,29.85,NE,38,2.0,6.0,94,0.00,,,0.07,0.0,meteohub,2013-06-19 02:37:00,
2013-06-18 22:42:00,64.9,63.1,29.85,NNE,26,0.0,6.0,94,0.00,,,0.07,0.0,meteohub,2013-06-19 02:42:00,
2013-06-18 22:47:00,65.1,63.3,29.85,North,5,0.0,6.0,94,0.00,,,0.07,0.0,meteohub,2013-06-19 02:47:00,
2013-06-18 22:52:00,65.1,63.3,29.85,North,11,0.0,4.0,94,0.00,,,0.07,0.0,meteohub,2013-06-19 02:52:00,
2013-06-18 22:57:00,65.3,63.5,29.86,North,5,0.0,4.0,94,0.00,,,0.07,0.0,meteohub,2013-06-19 02:57:00,
2013-06-18 23:02:00,65.5,64.0,29.86,NNE,26,1.0,4.0,95,0.00,,,0.07,0.0,meteohub,2013-06-19 03:02:00,
2013-06-18 23:07:00,65.5,64.0,29.86,NNE,13,0.0,5.0,95,0.00,,,0.07,0.0,meteohub,2013-06-19 03:07:00,
2013-06-18 23:12:00,65.7,64.2,29.86,NNE,13,0.0,5.0,95,0.00,,,0.07,0.0,meteohub,2013-06-19 03:12:00,
2013-06-18 23:17:00,65.7,64.2,29.87,NNE,24,0.0,5.0,95,0.00,,,0.07,0.0,meteohub,2013-06-19 03:17:00,
2013-06-18 23:22:00,65.7,64.2,29.87,NE,39,0.0,4.0,95,0.00,,,0.07,0.0,meteohub,2013-06-19 03:22:00,
2013-06-18 23:27:00,65.7,64.2,29.87,NE,49,0.0,4.0,95,0.00,,,0.07,0.0,meteohub,2013-06-19 03:27:00,
2013-06-18 23:32:00,65.5,64.0,29.87,NE,49,1.0,4.0,95,0.00,,,0.07,0.0,meteohub,2013-06-19 03:32:00,
2013-06-18 23:37:00,65.5,64.0,29.86,ENE,57,0.0,3.0,95,0.00,,,0.07,0.0,meteohub,2013-06-19 03:37:00,
2013-06-18 23:42:00,65.5,64.0,29.86,NE,42,0.0,5.0,95,0.00,,,0.07,0.0,meteohub,2013-06-19 03:42:00,
2013-06-18 23:47:00,65.5,64.0,29.86,NE,42,0.0,5.0,95,0.00,,,0.07,0.0,meteohub,2013-06-19 03:47:00,
2013-06-18 23:52:00,65.5,64.0,29.86,NE,50,0.0,5.0,95,0.00,,,0.07,0.0,meteohub,2013-06-19 03:52:00,
2013-06-18 23:57:00,65.5,64.0,29.86,NNE,30,0.0,5.0,95,0.00,,,0.07,0.0,meteohub,2013-06-19 03:57:00,